Time;durP1;ratioP1;P1;durP2;ratioP2;P2;SDS_P1;SDS_P2;PMS_P1;PMS_P2;Temp;Humidity;BMP_temperature;BMP_pressure;BME280_temperature;BME280_humidity;BME280_pressure;Samples;Min_cycle;Max_cycle;Signal;HPM_P1;HPM_P2
2022/04/28 00:00:24;;;;;;;2.50;1.38;;;;;;;16.04;100.00;100019.56;5089737;28;20190;-73
2022/04/28 00:02:51;;;;;;;3.00;1.65;;;;;;;16.19;97.72;100043.00;5089916;28;20709;-73
2022/04/28 00:05:18;;;;;;;7.03;1.50;;;;;;;16.24;96.31;100035.94;5089433;28;20205;-74
2022/04/28 00:07:46;;;;;;;2.05;1.50;;;;;;;16.29;94.00;100031.56;5074865;28;20206;-72
2022/04/28 00:10:14;;;;;;;3.15;1.30;;;;;;;16.35;94.17;100041.09;5079243;28;20198;-73
2022/04/28 00:12:42;;;;;;;5.85;1.27;;;;;;;16.54;92.56;100070.59;5093923;28;20200;-73
2022/04/28 00:15:10;;;;;;;1.70;1.60;;;;;;;16.69;91.82;100080.94;5093496;28;20202;-73
2022/04/28 00:17:37;;;;;;;4.15;1.55;;;;;;;16.53;96.39;100089.78;5093690;28;20225;-74
2022/04/28 00:20:06;;;;;;;1.73;1.63;;;;;;;16.28;100.00;100091.75;5093115;28;20202;-73
2022/04/28 00:22:33;;;;;;;2.22;1.83;;;;;;;16.37;100.00;100115.25;5093788;28;20213;-73
2022/04/28 00:25:00;;;;;;;2.33;2.10;;;;;;;16.47;100.00;100124.75;5094185;28;20198;-73
2022/04/28 00:27:27;;;;;;;2.20;1.70;;;;;;;16.36;100.00;100082.97;5093677;28;20658;-73
2022/04/28 00:29:55;;;;;;;3.97;1.85;;;;;;;16.43;100.00;100093.38;5099238;27;20232;-73
2022/04/28 00:32:22;;;;;;;2.90;2.05;;;;;;;16.39;100.00;100113.47;5134240;27;20192;-73
2022/04/28 00:34:49;;;;;;;2.40;1.30;;;;;;;15.83;100.00;100163.53;5094595;28;20286;-73
2022/04/28 00:37:17;;;;;;;5.13;2.40;;;;;;;15.47;100.00;100151.47;5125536;27;20200;-73
2022/04/28 00:39:44;;;;;;;4.13;1.95;;;;;;;15.44;100.00;100132.31;5134196;27;20661;-73
2022/04/28 00:42:12;;;;;;;2.45;2.15;;;;;;;15.12;100.00;100146.34;5134243;27;20201;-73
2022/04/28 00:44:40;;;;;;;5.45;2.45;;;;;;;15.11;100.00;100159.41;5134653;27;20208;-73
2022/04/28 00:47:09;;;;;;;3.15;2.03;;;;;;;15.16;100.00;100142.84;5133413;27;20196;-73
2022/04/28 00:52:20;;;;;;;2.83;1.80;;;;;;;14.93;100.00;100173.38;5134170;27;20281;-73
2022/04/28 00:54:49;;;;;;;2.22;1.88;;;;;;;14.70;100.00;100162.94;5114680;27;20185;-73
2022/04/28 00:57:17;;;;;;;9.55;2.13;;;;;;;14.57;100.00;100166.41;5134036;27;20207;-73
2022/04/28 00:59:45;;;;;;;2.75;1.98;;;;;;;14.75;100.00;100186.44;5133862;27;20221;-73
2022/04/28 01:02:14;;;;;;;2.05;1.95;;;;;;;14.73;100.00;100169.91;5132830;27;20571;-73
2022/04/28 01:04:41;;;;;;;2.67;2.47;;;;;;;14.75;100.00;100158.59;5134271;27;20197;-74
2022/04/28 01:07:08;;;;;;;1.92;1.83;;;;;;;14.86;100.00;100208.19;5133751;27;20781;-74
2022/04/28 01:09:36;;;;;;;4.32;2.50;;;;;;;14.71;100.00;100185.56;5134220;27;20203;-72
2022/04/28 01:12:07;;;;;;;4.22;2.33;;;;;;;14.86;100.00;100190.78;5133006;27;20192;-73
2022/04/28 01:14:34;;;;;;;3.33;2.72;;;;;;;14.71;100.00;100227.31;5133782;27;20189;-74
2022/04/28 01:17:01;;;;;;;3.92;2.35;;;;;;;14.82;100.00;100220.34;5133447;27;20600;-72
2022/04/28 01:19:29;;;;;;;5.63;2.58;;;;;;;15.00;100.00;100206.44;5132967;27;20217;-73
2022/04/28 01:21:57;;;;;;;3.58;2.85;;;;;;;14.92;100.00;100223.81;5133647;27;20204;-73
2022/04/28 01:24:24;;;;;;;3.60;2.83;;;;;;;14.63;100.00;100200.34;5109928;28;20653;-73
2022/04/28 01:26:54;;;;;;;2.55;2.35;;;;;;;14.68;100.00;100180.34;5113413;28;20200;-72
2022/04/28 01:29:21;;;;;;;3.92;2.60;;;;;;;14.68;100.00;100174.25;5130894;27;20204;-73
2022/04/28 01:31:48;;;;;;;2.95;2.75;;;;;;;14.60;100.00;100212.50;5132887;27;20216;-73
2022/04/28 01:34:15;;;;;;;4.53;2.83;;;;;;;14.78;100.00;100242.09;5133216;27;20189;-73
2022/04/28 01:36:42;;;;;;;6.47;2.80;;;;;;;14.75;100.00;100223.84;5133250;27;20675;-73
2022/04/28 01:39:11;;;;;;;3.50;3.10;;;;;;;14.76;100.00;100214.28;5133102;27;20827;-73
2022/04/28 01:41:38;;;;;;;4.05;3.85;;;;;;;14.56;100.00;100218.59;5133172;27;20208;-73
2022/04/28 01:44:05;;;;;;;3.47;3.28;;;;;;;14.50;100.00;100200.31;5132899;27;20205;-73
2022/04/28 01:46:32;;;;;;;9.07;2.53;;;;;;;14.51;100.00;100217.72;5132534;27;20204;-73
2022/04/28 01:48:59;;;;;;;2.85;2.65;;;;;;;14.48;100.00;100212.50;5133173;27;20292;-73
2022/04/28 01:56:56;;;;;;;5.93;3.60;;;;;;;14.44;100.00;100193.38;5133390;27;20246;-73
2022/04/28 01:59:23;;;;;;;5.60;3.95;;;;;;;14.29;100.00;100181.16;5132719;27;20901;-73
2022/04/28 02:01:49;;;;;;;5.38;4.28;;;;;;;14.41;100.00;100189.91;5132628;27;20596;-74
2022/04/28 02:04:16;;;;;;;5.30;4.07;;;;;;;14.35;100.00;100186.41;5132622;27;20208;-73
2022/04/28 02:06:43;;;;;;;6.80;4.55;;;;;;;14.48;100.00;100191.66;5132646;27;20204;-73
2022/04/28 02:09:12;;;;;;;9.70;5.55;;;;;;;14.52;100.00;100165.53;5096268;28;20785;-73
2022/04/28 02:11:39;;;;;;;5.65;3.45;;;;;;;14.28;100.00;100166.34;5125886;27;20273;-73
2022/04/28 02:14:06;;;;;;;5.00;4.50;;;;;;;14.42;100.00;100170.75;5132794;27;20228;-73
2022/04/28 02:16:33;;;;;;;6.20;3.72;;;;;;;14.25;100.00;100158.53;5132647;27;20200;-72
2022/04/28 02:18:59;;;;;;;4.90;4.10;;;;;;;14.29;100.00;100168.09;5132461;27;20224;-72
2022/04/28 02:21:26;;;;;;;6.15;4.38;;;;;;;14.26;100.00;100170.72;5095580;27;20189;-71
2022/04/28 02:23:53;;;;;;;7.38;4.82;;;;;;;14.28;100.00;100174.19;5132437;27;20197;-72
2022/04/28 02:26:21;;;;;;;6.32;4.72;;;;;;;14.28;100.00;100179.41;5112848;27;20200;-73
2022/04/28 02:28:48;;;;;;;12.48;5.18;;;;;;;14.15;100.00;100156.78;5132231;27;20213;-73
2022/04/28 02:31:15;;;;;;;9.05;5.47;;;;;;;14.07;100.00;100153.28;5131347;27;20221;-72
2022/04/28 02:33:42;;;;;;;5.55;5.07;;;;;;;14.16;100.00;100158.50;5132343;27;20200;-72
2022/04/28 02:36:08;;;;;;;12.10;5.28;;;;;;;14.19;100.00;100179.41;5132115;27;20204;-72
2022/04/28 02:38:35;;;;;;;6.03;4.20;;;;;;;14.29;100.00;100195.94;5130950;27;20220;-74
2022/04/28 02:41:02;;;;;;;5.45;4.30;;;;;;;14.17;100.00;100195.88;5131434;27;20188;-74
2022/04/28 02:43:31;;;;;;;8.23;5.60;;;;;;;13.98;100.00;100158.50;5108778;27;20193;-73
2022/04/28 02:45:58;;;;;;;6.75;5.85;;;;;;;14.27;100.00;100206.34;5132233;27;20269;-74
2022/04/28 02:48:25;;;;;;;6.03;5.43;;;;;;;14.40;100.00;100220.31;5131812;27;20200;-72
2022/04/28 02:50:53;;;;;;;6.57;5.65;;;;;;;14.32;100.00;100194.19;5091518;28;20734;-73
2022/04/28 02:53:20;;;;;;;6.47;5.78;;;;;;;14.31;100.00;100179.41;5124086;27;20561;-73
2022/04/28 02:55:47;;;;;;;11.05;6.55;;;;;;;14.38;100.00;100203.78;5131977;27;20201;-73
2022/04/28 02:58:14;;;;;;;10.13;5.30;;;;;;;13.78;100.00;100087.19;5131506;27;20205;-73
2022/04/28 03:00:42;;;;;;;8.85;5.68;;;;;;;14.52;100.00;100219.47;5131642;27;20633;-72
2022/04/28 03:03:09;;;;;;;5.70;4.72;;;;;;;14.18;100.00;100219.38;5131568;27;20689;-72
2022/04/28 03:10:46;;;;;;;12.05;5.57;;;;;;;14.29;100.00;100228.09;5131580;27;20676;-72
2022/04/28 03:11:09;;;;;;;6.30;5.55;;;;;;;14.29;100.00;100219.41;5127867;27;20195;-74
2022/04/28 03:13:36;;;;;;;5.05;3.38;;;;;;;14.22;100.00;100228.06;5131575;27;20204;-72
2022/04/28 03:16:05;;;;;;;7.82;5.60;;;;;;;14.06;100.00;100188.03;5112517;27;20192;-72
2022/04/28 03:18:33;;;;;;;7.20;5.75;;;;;;;14.15;100.00;100226.31;5131286;27;20232;-72
2022/04/28 03:21:00;;;;;;;8.57;6.43;;;;;;;14.04;100.00;100230.63;5131292;27;20253;-72
2022/04/28 03:23:27;;;;;;;4.57;4.18;;;;;;;14.07;100.00;100252.38;5131480;27;20192;-72
2022/04/28 03:25:54;;;;;;;7.88;5.15;;;;;;;14.02;100.00;100241.03;5131094;27;20199;-72
2022/04/28 03:28:21;;;;;;;6.20;4.28;;;;;;;14.06;100.00;100268.88;5130958;27;20193;-72
2022/04/28 03:30:48;;;;;;;10.77;5.45;;;;;;;13.94;100.00;100244.50;5130515;27;20217;-74
2022/04/28 03:33:18;;;;;;;6.97;3.80;;;;;;;14.07;100.00;100262.78;5131317;27;20200;-73
2022/04/28 03:35:45;;;;;;;8.90;5.95;;;;;;;14.02;100.00;100254.06;5130824;27;20189;-73
2022/04/28 03:38:13;;;;;;;6.63;6.00;;;;;;;14.19;100.00;100262.84;5131067;27;20688;-73
2022/04/28 03:40:40;;;;;;;8.02;5.65;;;;;;;14.12;100.00;100250.66;5095991;27;20221;-73
2022/04/28 03:43:07;;;;;;;6.45;5.65;;;;;;;14.27;100.00;100276.75;5130444;27;20204;-73
2022/04/28 03:45:34;;;;;;;7.60;5.45;;;;;;;14.15;100.00;100232.41;5130366;27;20197;-73
2022/04/28 03:48:02;;;;;;;9.23;5.82;;;;;;;14.55;100.00;100292.53;5130775;27;20201;-73
2022/04/28 03:50:32;;;;;;;10.00;5.72;;;;;;;14.27;100.00;100266.31;5130092;27;20225;-73
2022/04/28 03:52:59;;;;;;;7.03;5.50;;;;;;;14.54;100.00;100296.88;5130501;27;20682;-73
2022/04/28 03:55:26;;;;;;;7.13;5.70;;;;;;;14.48;100.00;100290.78;5130978;27;20636;-73
2022/04/28 03:57:53;;;;;;;8.65;5.72;;;;;;;14.49;100.00;100282.94;5130152;27;20201;-73
2022/04/28 04:00:20;;;;;;;7.03;5.35;;;;;;;14.58;100.00;100289.94;5130708;27;20223;-73
2022/04/28 04:02:48;;;;;;;9.75;5.95;;;;;;;14.77;100.00;100303.00;5116870;28;20193;-73
2022/04/28 04:05:18;;;;;;;7.25;5.50;;;;;;;14.79;100.00;100316.06;5130827;27;20275;-72
2022/04/28 04:07:46;;;;;;;7.47;5.57;;;;;;;14.79;100.00;100319.56;5130353;28;20650;-72
2022/04/28 04:10:13;;;;;;;8.95;5.70;;;;;;;14.98;100.00;100322.19;5130470;28;20233;-73
2022/04/28 04:12:40;;;;;;;9.20;5.60;;;;;;;15.27;100.00;100329.16;5130203;27;20620;-73
2022/04/28 04:15:08;;;;;;;8.65;5.90;;;;;;;15.39;100.00;100308.25;5104526;28;20216;-73
2022/04/28 04:17:42;;;;;;;11.98;6.10;;;;;;;15.73;100.00;100331.78;5121459;28;20197;-73
2022/04/28 04:20:10;;;;;;;10.90;5.65;;;;;;;15.70;100.00;100326.53;5130188;27;20265;-73
2022/04/28 04:22:37;;;;;;;6.72;6.03;;;;;;;15.48;100.00;100348.34;5130066;28;20243;-73
2022/04/28 04:25:06;;;;;;;10.40;5.57;;;;;;;15.47;100.00;100346.59;5130463;27;20193;-73
2022/04/28 04:27:33;;;;;;;8.93;5.95;;;;;;;15.58;100.00;100371.88;5127444;28;20293;-73
2022/04/28 04:32:17;;;;;;;9.88;6.70;;;;;;;15.35;100.00;100384.91;5130217;28;20673;-73
2022/04/28 04:32:46;;;;;;;10.65;6.50;;;;;;;15.04;100.00;100393.56;5130065;28;20196;-74
2022/04/28 04:35:13;;;;;;;12.85;6.55;;;;;;;15.28;100.00;100393.59;5130036;28;20273;-75
2022/04/28 04:37:40;;;;;;;6.28;5.32;;;;;;;15.31;100.00;100397.94;5130128;28;20200;-73
2022/04/28 04:40:11;;;;;;;11.25;6.40;;;;;;;15.12;100.00;100370.09;5129452;27;20767;-72
2022/04/28 04:42:37;;;;;;;5.97;5.20;;;;;;;15.18;100.00;100384.03;5130616;27;20188;-72
2022/04/28 04:45:05;;;;;;;11.10;5.93;;;;;;;14.97;100.00;100355.28;5134263;27;20192;-76
2022/04/28 04:47:32;;;;;;;7.85;5.45;;;;;;;14.69;100.00;100350.88;5131501;27;20197;-73
2022/04/28 04:49:59;;;;;;;11.25;6.07;;;;;;;14.39;100.00;100349.00;5129950;27;20199;-73
2022/04/28 04:52:26;;;;;;;8.48;5.90;;;;;;;13.89;100.00;100309.63;5130070;27;20201;-74
2022/04/28 04:54:53;;;;;;;8.75;7.05;;;;;;;14.08;100.00;100327.13;5133161;27;20189;-73
2022/04/28 04:57:21;;;;;;;12.15;6.60;;;;;;;13.97;100.00;100312.28;5135317;27;20209;-74
2022/04/28 04:59:47;;;;;;;13.95;7.35;;;;;;;14.16;100.00;100345.41;5133695;27;20227;-74
2022/04/28 05:02:14;;;;;;;8.73;7.40;;;;;;;14.27;100.00;100352.41;5133735;27;20205;-74
2022/04/28 05:04:41;;;;;;;10.85;7.47;;;;;;;14.35;100.00;100350.75;5133611;27;20892;-74
2022/04/28 05:07:09;;;;;;;13.80;7.93;;;;;;;14.38;100.00;100347.25;5133782;27;20197;-74
2022/04/28 05:09:37;;;;;;;17.38;7.55;;;;;;;14.41;100.00;100347.28;5130012;27;20308;-74
2022/04/28 05:12:04;;;;;;;9.50;7.10;;;;;;;14.60;100.00;100363.88;5130553;27;20593;-73
2022/04/28 05:14:32;;;;;;;9.48;7.05;;;;;;;14.62;100.00;100362.16;5128102;27;20685;-73
2022/04/28 05:16:59;;;;;;;9.43;7.60;;;;;;;14.18;100.00;100326.28;5118677;27;20622;-73
2022/04/28 05:19:27;;;;;;;10.38;7.35;;;;;;;14.32;100.00;100352.44;5096694;28;20289;-74
2022/04/28 05:21:54;;;;;;;12.13;7.55;;;;;;;14.26;100.00;100321.13;5121260;27;20609;-73
2022/04/28 05:24:22;;;;;;;16.10;8.65;;;;;;;14.66;100.00;100362.13;5132082;27;20573;-73
2022/04/28 05:26:49;;;;;;;13.48;8.60;;;;;;;14.66;100.00;100362.13;5125441;27;20198;-73
2022/04/28 05:29:15;;;;;;;12.93;7.70;;;;;;;14.68;100.00;100372.59;5113374;27;20216;-74
2022/04/28 05:31:43;;;;;;;10.10;7.30;;;;;;;14.69;100.00;100364.78;5113104;27;20236;-73
2022/04/28 05:34:10;;;;;;;11.50;7.82;;;;;;;14.82;100.00;100381.34;5125530;27;20196;-73
2022/04/28 05:36:38;;;;;;;12.15;8.38;;;;;;;14.71;100.00;100362.16;5121974;27;20209;-73
2022/04/28 05:39:05;;;;;;;16.45;9.05;;;;;;;14.93;100.00;100379.63;5129131;27;20623;-71
2022/04/28 05:41:34;;;;;;;10.73;7.70;;;;;;;14.90;100.00;100369.19;5132878;27;20199;-73
2022/04/28 05:46:47;;;;;;;11.90;7.75;;;;;;;15.26;100.00;100387.53;5126615;27;20255;-74
2022/04/28 05:49:14;;;;;;;12.77;8.43;;;;;;;15.39;100.00;100388.38;5116287;27;20288;-74
2022/04/28 05:51:41;;;;;;;13.07;8.65;;;;;;;15.59;100.00;100391.06;5129758;27;20208;-74
2022/04/28 05:54:08;;;;;;;9.93;7.78;;;;;;;15.47;100.00;100393.63;5116793;27;20201;-72
2022/04/28 05:56:35;;;;;;;11.52;8.00;;;;;;;15.34;100.00;100397.94;5112400;27;20209;-74
2022/04/28 05:59:02;;;;;;;12.10;7.97;;;;;;;15.54;100.00;100411.06;5111930;28;20552;-74
2022/04/28 06:01:29;;;;;;;9.35;7.57;;;;;;;15.91;100.00;100404.94;5112267;28;20197;-71
2022/04/28 06:03:57;;;;;;;10.07;7.57;;;;;;;16.20;100.00;100404.88;5111976;28;20244;-73
2022/04/28 06:06:24;;;;;;;9.73;7.43;;;;;;;16.14;100.00;100378.75;5129280;27;20209;-72
2022/04/28 11:56:20;;;;;;;7.00;6.32;;;;;;;17.34;100.00;100559.88;5068319;28;20532;-73
2022/04/28 11:58:48;;;;;;;8.88;5.28;;;;;;;17.50;100.00;100569.41;5068334;28;20206;-74
2022/04/28 12:01:16;;;;;;;7.00;5.07;;;;;;;17.13;100.00;100555.59;5049855;28;20303;-74
2022/04/28 12:03:52;;;;;;;9.63;5.30;;;;;;;17.60;100.00;100572.88;5068134;28;20256;-74
2022/04/28 12:06:20;;;;;;;8.48;5.40;;;;;;;17.52;100.00;100572.00;5033498;28;20201;-74
2022/04/28 12:08:51;;;;;;;5.55;4.70;;;;;;;17.12;100.00;100493.56;5068181;28;20203;-74
2022/04/28 12:14:24;;;;;;;4.68;4.00;;;;;;;17.99;100.00;100569.13;5067921;28;20275;-73
2022/04/28 12:19:49;;;;;;;4.20;3.80;;;;;;;18.68;100.00;100555.41;5067972;28;20202;-72
2022/04/28 12:22:27;;;;;;;4.93;3.35;;;;;;;18.27;100.00;100545.25;5067921;28;20260;-72
2022/04/28 12:24:55;;;;;;;4.65;4.15;;;;;;;18.00;100.00;100565.63;5067811;28;20205;-72
2022/04/28 12:27:23;;;;;;;4.88;3.83;;;;;;;17.72;100.00;100563.22;5067767;28;20264;-72
2022/04/28 12:29:53;;;;;;;4.32;3.85;;;;;;;17.82;100.00;100546.50;5067923;28;20196;-72
2022/04/28 12:32:23;;;;;;;6.80;4.57;;;;;;;17.94;100.00;100557.81;5067749;28;20256;-72
2022/04/28 12:35:01;;;;;;;5.90;4.55;;;;;;;17.91;100.00;100563.94;5067531;28;20281;-72
2022/04/28 12:37:28;;;;;;;6.85;4.63;;;;;;;18.36;100.00;100567.09;5067384;28;20658;-72
2022/04/28 12:39:59;;;;;;;5.93;5.03;;;;;;;18.09;100.00;100566.41;5067449;28;20203;-72
2022/04/28 12:42:29;;;;;;;5.40;3.65;;;;;;;17.69;100.00;100562.34;5067493;28;20724;-73
2022/04/28 12:44:58;;;;;;;4.28;3.88;;;;;;;17.82;100.00;100558.75;5067246;28;20207;-72
2022/04/28 12:47:35;;;;;;;6.43;4.55;;;;;;;18.02;100.00;100559.47;5067293;28;20203;-72
2022/04/28 12:50:18;;;;;;;4.88;3.53;;;;;;;17.79;100.00;100545.66;5067033;28;20203;-72
2022/04/28 12:52:45;;;;;;;5.15;4.65;;;;;;;18.05;100.00;100554.19;5067282;28;20682;-72
2022/04/28 12:55:12;;;;;;;4.20;3.75;;;;;;;17.95;100.00;100544.66;5064448;28;20231;-72
2022/04/28 12:57:41;;;;;;;4.95;4.47;;;;;;;18.24;100.00;100557.56;5053861;28;20203;-72
2022/04/28 13:00:10;;;;;;;4.78;4.38;;;;;;;18.10;100.00;100536.66;5053587;28;20728;-72
2022/04/28 13:02:38;;;;;;;6.63;4.57;;;;;;;18.22;100.00;100557.59;5053969;28;20195;-72
2022/04/28 13:05:13;;;;;;;9.65;5.45;;;;;;;18.24;100.00;100541.81;5053928;28;20203;-73
2022/04/28 13:07:41;;;;;;;3.90;3.60;;;;;;;17.77;100.00;100511.56;5019040;28;20289;-72
2022/04/28 13:10:09;;;;;;;8.73;6.00;;;;;;;18.03;100.00;100557.72;5053295;28;20231;-73
2022/04/28 13:12:37;;;;;;;6.45;5.60;;;;;;;17.78;100.00;100546.53;5053355;28;20200;-72
2022/04/28 13:15:06;;;;;;;7.28;5.28;;;;;;;18.34;100.00;100549.56;5053284;28;20239;-75
2022/04/28 13:17:33;;;;;;;7.07;5.35;;;;;;;17.54;100.00;100525.69;5053950;28;20281;-74
2022/04/28 13:20:00;;;;;;;6.80;4.15;;;;;;;17.97;100.00;100553.41;5034986;28;20695;-75
2022/04/28 13:22:27;;;;;;;5.65;4.50;;;;;;;17.85;100.00;100548.25;5053345;28;20203;-75
2022/04/28 13:24:55;;;;;;;6.05;5.10;;;;;;;17.85;100.00;100543.00;5034890;28;20206;-75
2022/04/28 13:27:22;;;;;;;4.50;4.10;;;;;;;17.55;100.00;100553.66;5053485;28;20203;-74
2022/04/28 13:29:48;;;;;;;5.47;4.57;;;;;;;17.33;100.00;100532.81;5053020;28;20207;-75
2022/04/28 13:32:17;;;;;;;4.13;3.83;;;;;;;17.32;100.00;100546.78;5053354;28;20687;-75
2022/04/28 13:34:43;;;;;;;6.93;4.50;;;;;;;17.34;100.00;100518.81;5053064;28;20231;-74
2022/04/28 13:37:10;;;;;;;4.60;4.20;;;;;;;17.52;100.00;100537.91;5053152;28;20708;-74
2022/04/28 13:39:37;;;;;;;4.88;3.70;;;;;;;17.72;100.00;100551.84;5053121;28;20203;-75
2022/04/28 13:42:04;;;;;;;4.18;3.80;;;;;;;17.62;100.00;100545.75;5052096;28;20574;-74
2022/04/28 13:44:32;;;;;;;3.83;3.53;;;;;;;17.40;100.00;100496.06;5052517;28;20630;-75
2022/04/28 13:47:00;;;;;;;5.18;4.20;;;;;;;17.64;100.00;100514.28;5052907;28;20678;-73
2022/04/28 13:49:28;;;;;;;4.45;4.05;;;;;;;17.95;100.00;100544.66;5053648;28;20208;-73
2022/04/28 13:51:55;;;;;;;5.25;4.30;;;;;;;17.62;100.00;100539.66;5036275;28;20203;-73
2022/04/28 13:54:22;;;;;;;5.60;5.03;;;;;;;17.75;100.00;100536.94;5052248;28;20300;-74
2022/04/28 13:56:49;;;;;;;5.28;4.32;;;;;;;17.60;100.00;100552.78;5041658;28;20577;-75
2022/04/28 13:59:16;;;;;;;6.97;5.53;;;;;;;17.73;100.00;100550.94;5031857;28;20205;-76
2022/04/28 14:01:43;;;;;;;6.78;5.57;;;;;;;17.71;100.00;100539.59;5033170;28;20199;-76
2022/04/28 14:04:10;;;;;;;5.88;5.38;;;;;;;17.79;100.00;100511.56;5043989;28;20195;-75
2022/04/28 14:06:38;;;;;;;9.85;5.38;;;;;;;18.43;100.00;100532.00;5042594;28;20196;-75
2022/04/28 14:09:05;;;;;;;8.18;6.18;;;;;;;18.37;100.00;100543.41;5049794;28;20195;-75
2022/04/28 14:11:33;;;;;;;8.38;5.57;;;;;;;18.24;100.00;100537.44;5038819;28;20195;-72
2022/04/28 14:14:00;;;;;;;6.43;5.70;;;;;;;18.18;100.00;100532.25;5050735;28;20202;-72
2022/04/28 14:16:27;;;;;;;9.98;7.30;;;;;;;18.12;100.00;100532.28;5014376;28;20212;-74
2022/04/28 14:18:54;;;;;;;9.20;6.80;;;;;;;18.02;100.00;100533.22;5049935;28;20257;-74
2022/04/28 14:21:21;;;;;;;5.30;4.80;;;;;;;17.97;100.00;100532.41;5048716;28;20192;-73
2022/04/28 14:23:58;;;;;;;7.05;5.97;;;;;;;17.99;100.00;100511.41;5016221;28;20207;-75
2022/04/28 14:26:25;;;;;;;5.70;5.18;;;;;;;18.28;100.00;100523.38;5050496;28;20597;-74
2022/04/28 14:28:52;;;;;;;8.00;6.13;;;;;;;18.58;100.00;100531.91;5052110;28;20204;-76
2022/04/28 14:31:19;;;;;;;7.82;6.35;;;;;;;18.72;100.00;100537.88;5051355;28;20653;-76
2022/04/28 14:33:45;;;;;;;10.13;7.65;;;;;;;18.59;100.00;100529.22;5051598;28;20274;-76
2022/04/28 14:36:12;;;;;;;8.00;7.20;;;;;;;18.55;100.00;100501.25;5051512;28;20606;-75
2022/04/28 14:38:39;;;;;;;9.32;7.47;;;;;;;18.47;100.00;100545.09;5044903;28;20214;-75
2022/04/28 14:41:07;;;;;;;8.18;7.32;;;;;;;18.36;100.00;100535.56;5031593;28;20315;-75
2022/04/28 14:43:34;;;;;;;8.02;7.18;;;;;;;18.25;100.00;100539.19;5051135;28;20204;-75
2022/04/28 14:46:01;;;;;;;8.82;7.20;;;;;;;17.65;100.00;100466.22;5050301;28;20675;-75
2022/04/28 14:48:27;;;;;;;10.20;8.02;;;;;;;18.20;100.00;100538.34;5051161;28;20222;-75
2022/04/28 14:53:38;;;;;;;15.98;9.15;;;;;;;18.14;100.00;100538.41;5051182;28;20627;-74
2022/04/28 14:56:06;;;;;;;16.80;10.57;;;;;;;18.27;100.00;100537.41;5051073;28;20710;-74
2022/04/28 14:58:34;;;;;;;15.65;9.77;;;;;;;18.21;100.00;100511.19;5050790;28;20196;-76
2022/04/28 15:01:01;;;;;;;12.95;10.00;;;;;;;18.24;100.00;100540.06;5051188;28;20730;-75
2022/04/28 15:03:33;;;;;;;18.60;9.93;;;;;;;18.22;100.00;100536.59;5011172;28;20203;-72
2022/04/28 15:06:00;;;;;;;10.35;9.15;;;;;;;18.07;100.00;100539.31;5044423;28;20260;-75
2022/04/28 15:08:27;;;;;;;9.20;8.30;;;;;;;18.12;100.00;100532.28;5050885;28;20683;-75
2022/04/28 15:10:54;;;;;;;10.98;8.50;;;;;;;18.14;100.00;100520.03;5050901;28;20207;-75
2022/04/28 15:13:22;;;;;;;9.60;8.60;;;;;;;18.24;100.00;100540.06;5051149;28;20199;-75
2022/04/28 15:15:49;;;;;;;9.40;7.88;;;;;;;17.97;100.00;100500.94;5015735;28;20235;-75
2022/04/28 15:18:16;;;;;;;9.07;7.90;;;;;;;17.96;100.00;100514.91;5031909;28;20184;-74
2022/04/28 15:20:42;;;;;;;9.13;8.23;;;;;;;17.95;100.00;100504.44;5050789;28;20195;-73
2022/04/28 15:23:09;;;;;;;8.82;7.80;;;;;;;18.10;100.00;100527.91;5050456;28;20202;-73
2022/04/28 15:25:39;;;;;;;11.52;8.85;;;;;;;18.10;100.00;100517.44;5050492;28;20203;-75
2022/04/28 15:28:07;;;;;;;10.68;9.35;;;;;;;18.04;100.00;100507.88;5016490;28;20603;-73
2022/04/28 15:30:35;;;;;;;10.32;8.82;;;;;;;17.82;100.00;100516.78;5050485;28;20667;-72
2022/04/28 15:33:02;;;;;;;9.35;8.43;;;;;;;18.14;100.00;100530.53;5051040;28;20207;-74
2022/04/28 15:35:28;;;;;;;14.38;10.18;;;;;;;17.35;100.00;100436.66;5050783;28;20759;-73
2022/04/28 15:37:55;;;;;;;14.25;11.30;;;;;;;18.05;100.00;100538.44;5050177;28;20252;-73
2022/04/28 15:40:22;;;;;;;14.35;10.57;;;;;;;17.96;100.00;100524.53;5050525;28;20211;-73
2022/04/28 15:42:50;;;;;;;15.80;10.15;;;;;;;17.82;100.00;100532.53;5050527;28;20253;-73
2022/04/28 15:45:17;;;;;;;15.90;10.68;;;;;;;17.72;100.00;100530.84;5051032;28;20214;-73
2022/04/28 15:47:45;;;;;;;15.48;10.15;;;;;;;17.58;100.00;100535.31;5050686;28;20632;-73
2022/04/28 15:50:14;;;;;;;12.65;10.60;;;;;;;17.31;100.00;100531.06;5049875;28;20638;-71
2022/04/28 15:52:41;;;;;;;12.77;10.30;;;;;;;17.49;100.00;100520.47;5049537;28;20257;-75
2022/04/28 15:55:09;;;;;;;13.23;10.90;;;;;;;18.00;100.00;100536.75;5049537;28;20231;-74
2022/04/28 15:57:36;;;;;;;17.77;9.13;;;;;;;18.25;100.00;100548.78;5049626;28;20208;-73
2022/04/28 16:00:06;;;;;;;100.80;45.00;;;;;;;17.75;100.00;100526.47;5049686;28;20290;-70
2022/04/28 16:02:33;;;;;;;14.20;11.05;;;;;;;17.65;100.00;100555.38;4995515;28;20274;-75
2022/04/28 16:05:02;;;;;;;11.25;9.55;;;;;;;17.47;100.00;100550.19;5039238;28;20204;-74
2022/04/28 16:07:28;;;;;;;12.23;10.05;;;;;;;17.25;100.00;100534.59;5043769;28;20207;-74
2022/04/28 16:09:55;;;;;;;12.75;9.45;;;;;;;17.40;100.00;100543.25;5047307;28;20207;-74
2022/04/28 16:12:24;;;;;;;11.00;9.70;;;;;;;17.20;100.00;100540.72;5030413;28;20647;-74
2022/04/28 16:14:51;;;;;;;15.57;9.77;;;;;;;16.95;100.00;100539.06;5029884;28;20292;-74
2022/04/28 16:17:18;;;;;;;13.48;10.32;;;;;;;16.86;100.00;100532.13;5045575;28;20200;-75
2022/04/28 16:19:44;;;;;;;11.73;9.57;;;;;;;16.81;100.00;100541.75;5049183;28;20202;-73
2022/04/28 16:22:13;;;;;;;14.57;10.25;;;;;;;16.84;100.00;100547.84;5049356;28;20236;-74
2022/04/28 16:24:40;;;;;;;14.43;9.93;;;;;;;16.71;100.00;100524.31;5050321;28;20220;-73
2022/04/28 16:27:07;;;;;;;12.90;10.65;;;;;;;16.74;100.00;100550.50;5014509;28;20636;-73
2022/04/28 16:29:34;;;;;;;12.65;10.07;;;;;;;16.70;100.00;100559.22;5049311;28;20211;-73
2022/04/28 16:32:01;;;;;;;15.43;11.15;;;;;;;16.67;100.00;100533.94;5030351;28;20204;-72
2022/04/28 16:34:28;;;;;;;12.07;10.77;;;;;;;16.75;100.00;100558.34;5033962;28;20246;-73
2022/04/28 16:36:54;;;;;;;15.18;11.00;;;;;;;16.89;100.00;100552.19;5046600;28;20622;-73
2022/04/28 16:39:23;;;;;;;12.82;10.32;;;;;;;16.86;100.00;100560.94;5053220;28;20203;-72
2022/04/28 16:41:49;;;;;;;16.10;10.90;;;;;;;16.66;100.00;100547.88;5053636;28;20200;-73
2022/04/28 16:44:16;;;;;;;14.98;10.48;;;;;;;16.87;100.00;100572.28;5053490;28;20619;-73
2022/04/28 16:46:43;;;;;;;14.23;10.32;;;;;;;16.87;100.00;100557.47;5017984;28;20207;-74
2022/04/28 16:49:11;;;;;;;14.43;10.65;;;;;;;16.89;100.00;100554.81;5034315;28;20206;-73
2022/04/28 16:51:38;;;;;;;15.82;9.57;;;;;;;17.00;100.00;100568.75;5053153;28;20203;-72
2022/04/28 16:54:06;;;;;;;16.00;11.95;;;;;;;16.81;100.00;100573.16;5053482;28;20260;-73
2022/04/28 16:56:34;;;;;;;17.40;11.90;;;;;;;16.63;100.00;100579.31;5017701;28;20226;-74
2022/04/28 16:59:01;;;;;;;19.02;12.23;;;;;;;16.54;100.00;100578.44;5052530;28;20693;-75
2022/04/28 17:01:28;;;;;;;19.13;13.15;;;;;;;16.24;100.00;100530.47;5052659;28;20191;-74
2022/04/28 17:06:39;;;;;;;29.67;20.83;;;;;;;16.68;100.00;100571.47;5053478;28;20602;-72
2022/04/28 17:09:06;;;;;;;29.17;18.25;;;;;;;16.81;100.00;100581.91;5052909;28;20216;-74
2022/04/28 17:11:34;;;;;;;31.05;21.02;;;;;;;16.76;100.00;100582.81;5052797;28;20203;-71
2022/04/28 17:14:03;;;;;;;26.02;17.83;;;;;;;16.57;100.00;100570.59;5052679;28;20207;-73
2022/04/28 17:16:30;;;;;;;22.45;15.32;;;;;;;16.47;100.00;100589.78;5017682;28;20235;-73
2022/04/28 17:18:59;;;;;;;17.50;11.25;;;;;;;16.13;100.00;100566.22;5053405;28;20199;-73
2022/04/28 17:21:27;;;;;;;14.95;10.07;;;;;;;16.37;100.00;100592.38;5052843;28;20210;-73
2022/04/28 17:23:54;;;;;;;15.00;10.32;;;;;;;16.26;100.00;100593.28;5051903;28;20206;-74
2022/04/28 17:26:21;;;;;;;10.60;9.50;;;;;;;16.11;100.00;100565.38;5052833;28;20200;-73
2022/04/28 17:28:50;;;;;;;12.68;9.32;;;;;;;16.36;100.00;100606.38;5052851;28;20230;-72